createdAt,value
2023-03-23T15:58:11.921Z,17.74
2023-03-23T16:00:40.430Z,17.73
2023-03-23T16:03:14.485Z,17.68
2023-03-23T16:05:41.724Z,17.62
2023-03-23T16:08:11.818Z,17.59
2023-03-23T16:10:39.150Z,17.58
2023-03-23T16:13:07.073Z,17.57
2023-03-23T16:15:34.157Z,17.55
2023-03-23T16:18:01.074Z,17.56
2023-03-23T16:20:30.199Z,17.53
2023-03-23T16:22:57.486Z,17.55
2023-03-23T16:25:24.370Z,17.48
2023-03-23T16:27:52.687Z,17.53
2023-03-23T16:30:24.129Z,17.51
2023-03-23T16:32:51.498Z,17.51
2023-03-23T16:35:20.159Z,17.48
2023-03-23T16:38:07.112Z,17.50
2023-03-23T16:40:34.716Z,17.50
2023-03-23T16:43:01.622Z,17.52
2023-03-23T16:45:35.706Z,17.51
2023-03-23T16:48:02.630Z,17.50
2023-03-23T16:50:30.085Z,17.47
2023-03-23T16:52:57.446Z,17.41
2023-03-23T16:55:26.127Z,17.37
2023-03-23T16:58:05.396Z,17.32
2023-03-23T17:00:40.874Z,17.20
2023-03-23T17:03:08.437Z,17.19
2023-03-23T17:05:37.127Z,17.13
2023-03-23T17:08:04.620Z,17.05
2023-03-23T17:10:32.241Z,16.98
2023-03-23T17:12:59.206Z,16.91
2023-03-23T17:15:26.149Z,16.85
2023-03-23T17:17:54.795Z,16.77
2023-03-23T17:20:22.402Z,16.67
2023-03-23T17:22:49.488Z,16.60
2023-03-23T17:25:16.493Z,16.55
2023-03-23T17:27:43.409Z,16.51
2023-03-23T17:30:11.457Z,16.40
2023-03-23T17:32:39.091Z,16.38
2023-03-23T17:35:06.977Z,16.33
2023-03-23T17:37:34.448Z,16.29
2023-03-23T17:40:01.371Z,16.23
2023-03-23T17:42:29.550Z,16.20
2023-03-23T17:44:56.468Z,16.07
2023-03-23T17:47:24.095Z,16.15
2023-03-23T17:49:51.382Z,16.14
2023-03-23T17:52:18.293Z,16.15
2023-03-23T17:54:45.494Z,16.14
2023-03-23T17:57:12.469Z,16.14
2023-03-23T17:59:39.548Z,16.14
2023-03-23T18:02:06.670Z,16.14
2023-03-23T18:04:33.598Z,16.13
2023-03-23T18:07:00.970Z,16.17
2023-03-23T18:09:28.176Z,16.17
2023-03-23T18:11:56.558Z,16.18
2023-03-23T18:14:23.563Z,16.17
2023-03-23T18:16:50.609Z,16.17
2023-03-23T18:19:17.594Z,16.15
2023-03-23T18:21:46.000Z,16.13
2023-03-23T18:24:13.221Z,16.12
2023-03-23T18:26:40.931Z,16.09
2023-03-23T18:29:07.850Z,16.07
2023-03-23T18:31:39.926Z,16.05
2023-03-23T18:34:07.530Z,15.98
2023-03-23T18:36:35.065Z,15.97
2023-03-23T18:39:03.700Z,15.90
2023-03-23T18:41:30.681Z,15.86
2023-03-23T18:43:57.881Z,15.77
2023-03-23T18:46:25.487Z,15.73
2023-03-23T18:48:52.492Z,15.65
2023-03-23T18:51:19.380Z,15.51
2023-03-23T18:53:46.379Z,15.54
2023-03-23T18:56:16.439Z,15.48
2023-03-23T18:58:44.782Z,15.42
2023-03-23T19:01:16.951Z,15.36
2023-03-23T19:03:45.313Z,15.31
2023-03-23T19:06:22.537Z,15.26
2023-03-23T19:08:50.242Z,15.23
2023-03-23T19:11:18.153Z,15.19
2023-03-23T19:13:58.450Z,15.14
2023-03-23T19:16:31.068Z,15.08
2023-03-23T19:18:58.137Z,15.01
2023-03-23T19:21:25.905Z,15.03
2023-03-23T19:23:55.240Z,15.02
2023-03-23T19:26:34.708Z,15.00
2023-03-23T19:31:35.948Z,14.94
2023-03-23T19:34:02.890Z,14.92
2023-03-23T19:36:30.316Z,14.87
2023-03-23T19:38:57.802Z,14.84
2023-03-23T19:41:30.334Z,14.81
2023-03-23T19:43:57.607Z,14.71
2023-03-23T19:46:26.027Z,14.72
2023-03-23T19:48:54.631Z,14.69
2023-03-23T19:51:22.465Z,14.64
2023-03-23T19:53:50.193Z,14.63
2023-03-23T19:56:21.511Z,14.58
2023-03-23T19:58:49.042Z,14.55
2023-03-23T20:01:16.764Z,14.52
2023-03-23T20:03:44.060Z,14.48
2023-03-23T20:06:15.119Z,14.43
2023-03-23T20:08:45.549Z,14.39
2023-03-23T20:11:17.176Z,14.36
2023-03-23T20:13:45.936Z,14.32
2023-03-23T20:16:12.970Z,14.23
2023-03-23T20:18:40.613Z,14.30
2023-03-23T20:21:14.473Z,14.25
2023-03-23T20:23:42.941Z,14.24
2023-03-23T20:26:14.752Z,14.21
2023-03-23T20:28:42.682Z,14.19
2023-03-23T20:31:19.282Z,14.16
2023-03-23T20:34:00.249Z,14.15
2023-03-23T20:36:34.783Z,14.11
2023-03-23T20:39:12.507Z,14.09
2023-03-23T20:41:40.373Z,14.07
2023-03-23T20:44:13.739Z,14.05
2023-03-23T20:46:45.778Z,14.03
2023-03-23T20:49:13.912Z,14.00
2023-03-23T20:51:40.987Z,14.00
2023-03-23T20:54:08.001Z,13.97
2023-03-23T20:56:35.614Z,13.95
2023-03-23T20:59:03.701Z,13.93
2023-03-23T21:01:33.155Z,13.92
2023-03-23T21:04:00.284Z,13.92
2023-03-23T21:06:28.768Z,13.90
2023-03-23T21:08:57.428Z,13.89
2023-03-23T21:11:26.641Z,13.90
2023-03-23T21:13:54.278Z,13.88
2023-03-23T21:16:21.535Z,13.89
2023-03-23T21:18:48.633Z,13.88
2023-03-23T21:21:18.381Z,13.87
2023-03-23T21:23:47.505Z,13.86
2023-03-23T21:26:17.001Z,13.84
2023-03-23T21:28:45.796Z,13.81
2023-03-23T21:31:14.980Z,13.76
2023-03-23T21:33:42.026Z,13.70
2023-03-23T21:36:10.096Z,13.71
2023-03-23T21:38:38.356Z,13.66
2023-03-23T21:41:14.282Z,13.65
2023-03-23T21:43:41.730Z,13.64
2023-03-23T21:46:09.840Z,13.64
2023-03-23T21:48:41.533Z,13.61
2023-03-23T21:51:13.416Z,13.60
2023-03-23T21:53:42.025Z,13.60
2023-03-23T21:56:10.728Z,13.58
2023-03-23T21:58:38.387Z,13.57
2023-03-23T22:01:05.629Z,13.51
2023-03-23T22:03:35.283Z,13.53
2023-03-23T22:06:16.310Z,13.52
2023-03-23T22:08:45.312Z,13.50
2023-03-23T22:11:17.119Z,13.52
2023-03-23T22:13:44.238Z,13.49
2023-03-23T22:16:14.892Z,13.51
2023-03-23T22:18:43.321Z,13.51
2023-03-23T22:21:11.341Z,13.49
2023-03-23T22:23:39.402Z,13.47
2023-03-23T22:26:07.540Z,13.48
2023-03-23T22:28:37.072Z,13.49
2023-03-23T22:31:14.274Z,13.50
2023-03-23T22:33:41.169Z,13.49
2023-03-23T22:36:08.846Z,13.51
2023-03-23T22:38:38.449Z,13.47
2023-03-23T22:41:08.200Z,13.55
2023-03-23T22:43:36.637Z,13.54
2023-03-23T22:46:04.861Z,13.61
2023-03-23T22:48:31.982Z,13.64
2023-03-23T22:50:59.532Z,13.66
2023-03-23T22:53:26.452Z,13.68
2023-03-23T22:55:56.642Z,13.65
2023-03-23T22:58:25.913Z,13.74
2023-03-23T23:01:02.821Z,13.77
2023-03-23T23:03:30.799Z,13.78
2023-03-23T23:05:59.462Z,13.79
2023-03-23T23:08:28.518Z,13.82
2023-03-23T23:10:57.701Z,13.78
2023-03-23T23:13:25.913Z,13.87
2023-03-23T23:15:56.966Z,13.89
2023-03-23T23:18:25.927Z,13.93
2023-03-23T23:20:56.355Z,13.91
2023-03-23T23:23:25.172Z,13.92
2023-03-23T23:25:52.170Z,13.95
2023-03-23T23:28:20.236Z,14.02
2023-03-23T23:30:47.753Z,14.01
2023-03-23T23:33:14.991Z,14.03
2023-03-23T23:35:42.491Z,13.98
2023-03-23T23:38:12.341Z,14.04
2023-03-23T23:40:41.380Z,14.03
2023-03-23T23:43:10.713Z,14.04
2023-03-23T23:45:37.960Z,14.04
2023-03-23T23:48:05.381Z,14.02
2023-03-23T23:50:32.800Z,14.06
2023-03-23T23:53:00.140Z,14.05
2023-03-23T23:55:27.925Z,14.02
2023-03-23T23:57:54.847Z,13.98
